sensor_id;sensor_type;location;lat;lon;timestamp;P1;durP1;ratioP1;P2;durP2;ratioP2
69991;SDS011;57332;51.320;-0.580;2023-05-01T00:00:36;18.73;;;10.27;;
69991;SDS011;57332;51.320;-0.580;2023-05-01T00:03:03;16.27;;;9.48;;
69991;SDS011;57332;51.320;-0.580;2023-05-01T00:05:30;19.20;;;9.75;;
69991;SDS011;57332;51.320;-0.580;2023-05-01T00:07:57;18.95;;;8.85;;
69991;SDS011;57332;51.320;-0.580;2023-05-01T00:10:24;17.08;;;8.77;;
69991;SDS011;57332;51.320;-0.580;2023-05-01T00:12:51;18.13;;;8.77;;
69991;SDS011;57332;51.320;-0.580;2023-05-01T00:15:17;20.45;;;9.93;;
69991;SDS011;57332;51.320;-0.580;2023-05-01T00:17:44;18.25;;;8.32;;
69991;SDS011;57332;51.320;-0.580;2023-05-01T00:20:11;16.80;;;8.85;;
69991;SDS011;57332;51.320;-0.580;2023-05-01T00:22:38;18.40;;;8.98;;
69991;SDS011;57332;51.320;-0.580;2023-05-01T00:25:05;19.25;;;10.30;;
69991;SDS011;57332;51.320;-0.580;2023-05-01T00:27:32;16.30;;;8.57;;
69991;SDS011;57332;51.320;-0.580;2023-05-01T00:29:59;17.77;;;8.30;;
69991;SDS011;57332;51.320;-0.580;2023-05-01T00:32:26;17.23;;;8.48;;
69991;SDS011;57332;51.320;-0.580;2023-05-01T00:34:53;15.55;;;8.00;;
69991;SDS011;57332;51.320;-0.580;2023-05-01T00:37:22;18.67;;;9.27;;
69991;SDS011;57332;51.320;-0.580;2023-05-01T00:39:49;20.75;;;9.07;;
69991;SDS011;57332;51.320;-0.580;2023-05-01T00:42:16;21.48;;;9.40;;
69991;SDS011;57332;51.320;-0.580;2023-05-01T00:44:43;16.00;;;8.43;;
69991;SDS011;57332;51.320;-0.580;2023-05-01T00:47:10;17.23;;;8.27;;
69991;SDS011;57332;51.320;-0.580;2023-05-01T00:49:37;17.85;;;8.70;;
69991;SDS011;57332;51.320;-0.580;2023-05-01T00:52:04;17.15;;;7.90;;
69991;SDS011;57332;51.320;-0.580;2023-05-01T00:54:31;17.05;;;8.50;;
69991;SDS011;57332;51.320;-0.580;2023-05-01T00:56:57;16.55;;;8.80;;
69991;SDS011;57332;51.320;-0.580;2023-05-01T00:59:24;18.40;;;9.48;;
69991;SDS011;57332;51.320;-0.580;2023-05-01T01:01:51;20.42;;;9.65;;
69991;SDS011;57332;51.320;-0.580;2023-05-01T01:04:21;17.92;;;9.60;;
69991;SDS011;57332;51.320;-0.580;2023-05-01T01:06:54;21.60;;;10.30;;
69991;SDS011;57332;51.320;-0.580;2023-05-01T01:14:47;18.67;;;9.27;;
69991;SDS011;57332;51.320;-0.580;2023-05-01T01:17:17;18.33;;;9.88;;
69991;SDS011;57332;51.320;-0.580;2023-05-01T01:22:12;18.60;;;8.63;;
69991;SDS011;57332;51.320;-0.580;2023-05-01T01:30:16;18.75;;;9.70;;
69991;SDS011;57332;51.320;-0.580;2023-05-01T01:35:20;18.77;;;8.98;;
69991;SDS011;57332;51.320;-0.580;2023-05-01T01:37:56;19.70;;;9.00;;
69991;SDS011;57332;51.320;-0.580;2023-05-01T01:40:24;16.88;;;8.73;;
69991;SDS011;57332;51.320;-0.580;2023-05-01T01:42:57;16.92;;;8.80;;
69991;SDS011;57332;51.320;-0.580;2023-05-01T01:45:27;18.00;;;8.88;;
69991;SDS011;57332;51.320;-0.580;2023-05-01T01:47:55;19.42;;;8.65;;
69991;SDS011;57332;51.320;-0.580;2023-05-01T01:50:23;18.30;;;8.57;;
69991;SDS011;57332;51.320;-0.580;2023-05-01T01:52:52;20.88;;;9.73;;
69991;SDS011;57332;51.320;-0.580;2023-05-01T01:55:20;18.25;;;8.52;;
69991;SDS011;57332;51.320;-0.580;2023-05-01T01:57:47;20.38;;;9.23;;
69991;SDS011;57332;51.320;-0.580;2023-05-01T02:00:15;18.98;;;8.85;;
69991;SDS011;57332;51.320;-0.580;2023-05-01T02:02:43;18.23;;;8.93;;
69991;SDS011;57332;51.320;-0.580;2023-05-01T02:05:13;20.52;;;9.88;;
69991;SDS011;57332;51.320;-0.580;2023-05-01T02:07:41;19.05;;;9.80;;
69991;SDS011;57332;51.320;-0.580;2023-05-01T02:10:10;19.25;;;9.82;;
69991;SDS011;57332;51.320;-0.580;2023-05-01T02:12:38;18.58;;;9.40;;
69991;SDS011;57332;51.320;-0.580;2023-05-01T02:15:06;17.98;;;8.95;;
69991;SDS011;57332;51.320;-0.580;2023-05-01T02:17:34;17.05;;;7.90;;
69991;SDS011;57332;51.320;-0.580;2023-05-01T02:20:01;17.35;;;8.82;;
69991;SDS011;57332;51.320;-0.580;2023-05-01T02:22:29;22.35;;;10.15;;
69991;SDS011;57332;51.320;-0.580;2023-05-01T02:24:56;17.30;;;8.98;;
69991;SDS011;57332;51.320;-0.580;2023-05-01T02:27:25;17.92;;;8.63;;
69991;SDS011;57332;51.320;-0.580;2023-05-01T02:29:56;21.67;;;9.68;;
69991;SDS011;57332;51.320;-0.580;2023-05-01T02:32:23;19.67;;;9.32;;
69991;SDS011;57332;51.320;-0.580;2023-05-01T02:34:51;22.45;;;8.98;;
69991;SDS011;57332;51.320;-0.580;2023-05-01T02:37:17;26.25;;;11.43;;
69991;SDS011;57332;51.320;-0.580;2023-05-01T02:39:44;24.38;;;10.98;;
69991;SDS011;57332;51.320;-0.580;2023-05-01T02:42:11;23.77;;;10.77;;
69991;SDS011;57332;51.320;-0.580;2023-05-01T02:44:39;23.88;;;10.30;;
69991;SDS011;57332;51.320;-0.580;2023-05-01T02:47:07;24.23;;;10.52;;
69991;SDS011;57332;51.320;-0.580;2023-05-01T02:49:35;27.13;;;11.57;;
69991;SDS011;57332;51.320;-0.580;2023-05-01T02:52:03;25.27;;;11.40;;
69991;SDS011;57332;51.320;-0.580;2023-05-01T02:54:30;25.65;;;11.40;;
69991;SDS011;57332;51.320;-0.580;2023-05-01T02:56:57;22.75;;;10.75;;
69991;SDS011;57332;51.320;-0.580;2023-05-01T02:59:25;24.52;;;10.50;;
69991;SDS011;57332;51.320;-0.580;2023-05-01T03:01:51;26.13;;;10.90;;
69991;SDS011;57332;51.320;-0.580;2023-05-01T03:04:18;26.85;;;10.15;;
69991;SDS011;57332;51.320;-0.580;2023-05-01T03:06:45;28.25;;;11.10;;
69991;SDS011;57332;51.320;-0.580;2023-05-01T03:09:12;25.55;;;10.23;;
69991;SDS011;57332;51.320;-0.580;2023-05-01T03:11:39;24.60;;;10.52;;
69991;SDS011;57332;51.320;-0.580;2023-05-01T03:14:06;24.02;;;9.13;;
69991;SDS011;57332;51.320;-0.580;2023-05-01T03:16:33;19.45;;;8.65;;
69991;SDS011;57332;51.320;-0.580;2023-05-01T03:19:00;19.42;;;7.47;;
69991;SDS011;57332;51.320;-0.580;2023-05-01T03:21:26;16.33;;;6.45;;
69991;SDS011;57332;51.320;-0.580;2023-05-01T03:23:53;17.63;;;6.22;;
69991;SDS011;57332;51.320;-0.580;2023-05-01T03:26:20;14.15;;;5.82;;
69991;SDS011;57332;51.320;-0.580;2023-05-01T03:28:47;12.60;;;5.57;;
69991;SDS011;57332;51.320;-0.580;2023-05-01T03:31:14;12.75;;;5.00;;
69991;SDS011;57332;51.320;-0.580;2023-05-01T03:33:41;13.15;;;4.30;;
69991;SDS011;57332;51.320;-0.580;2023-05-01T03:36:08;10.85;;;4.00;;
69991;SDS011;57332;51.320;-0.580;2023-05-01T03:38:38;11.80;;;4.28;;
69991;SDS011;57332;51.320;-0.580;2023-05-01T03:41:04;11.70;;;4.30;;
69991;SDS011;57332;51.320;-0.580;2023-05-01T03:43:31;10.05;;;3.67;;
69991;SDS011;57332;51.320;-0.580;2023-05-01T03:45:58;12.75;;;3.30;;
69991;SDS011;57332;51.320;-0.580;2023-05-01T03:48:25;9.00;;;3.58;;
69991;SDS011;57332;51.320;-0.580;2023-05-01T03:50:52;8.27;;;3.47;;
69991;SDS011;57332;51.320;-0.580;2023-05-01T03:53:19;9.70;;;4.43;;
69991;SDS011;57332;51.320;-0.580;2023-05-01T03:55:46;8.60;;;3.40;;
69991;SDS011;57332;51.320;-0.580;2023-05-01T03:58:13;9.05;;;3.53;;
69991;SDS011;57332;51.320;-0.580;2023-05-01T04:00:40;7.72;;;3.33;;
69991;SDS011;57332;51.320;-0.580;2023-05-01T04:03:07;8.60;;;3.35;;
69991;SDS011;57332;51.320;-0.580;2023-05-01T04:05:34;8.88;;;3.28;;
69991;SDS011;57332;51.320;-0.580;2023-05-01T04:08:01;7.30;;;3.10;;
69991;SDS011;57332;51.320;-0.580;2023-05-01T04:10:29;10.00;;;3.05;;
69991;SDS011;57332;51.320;-0.580;2023-05-01T04:12:56;5.80;;;2.38;;
69991;SDS011;57332;51.320;-0.580;2023-05-01T04:15:23;6.65;;;2.67;;
69991;SDS011;57332;51.320;-0.580;2023-05-01T04:17:50;6.03;;;2.28;;
69991;SDS011;57332;51.320;-0.580;2023-05-01T04:20:18;4.90;;;2.30;;
69991;SDS011;57332;51.320;-0.580;2023-05-01T04:22:45;6.28;;;2.17;;
69991;SDS011;57332;51.320;-0.580;2023-05-01T04:25:12;7.93;;;2.72;;
69991;SDS011;57332;51.320;-0.580;2023-05-01T04:27:39;5.38;;;2.30;;
69991;SDS011;57332;51.320;-0.580;2023-05-01T04:30:06;6.95;;;2.25;;
69991;SDS011;57332;51.320;-0.580;2023-05-01T04:32:33;6.10;;;2.30;;
69991;SDS011;57332;51.320;-0.580;2023-05-01T04:35:01;9.50;;;2.30;;
69991;SDS011;57332;51.320;-0.580;2023-05-01T04:37:29;5.30;;;2.00;;
69991;SDS011;57332;51.320;-0.580;2023-05-01T04:39:56;4.55;;;1.85;;
69991;SDS011;57332;51.320;-0.580;2023-05-01T04:42:28;9.65;;;2.38;;
69991;SDS011;57332;51.320;-0.580;2023-05-01T04:44:55;5.93;;;1.92;;
69991;SDS011;57332;51.320;-0.580;2023-05-01T04:47:22;5.43;;;1.77;;
69991;SDS011;57332;51.320;-0.580;2023-05-01T04:49:49;5.57;;;2.13;;
69991;SDS011;57332;51.320;-0.580;2023-05-01T04:52:16;8.30;;;2.03;;
69991;SDS011;57332;51.320;-0.580;2023-05-01T04:54:43;7.53;;;2.00;;
69991;SDS011;57332;51.320;-0.580;2023-05-01T04:57:09;6.72;;;1.92;;
69991;SDS011;57332;51.320;-0.580;2023-05-01T04:59:36;5.15;;;1.98;;
69991;SDS011;57332;51.320;-0.580;2023-05-01T05:02:03;7.05;;;2.38;;
69991;SDS011;57332;51.320;-0.580;2023-05-01T05:04:31;6.13;;;2.30;;
69991;SDS011;57332;51.320;-0.580;2023-05-01T05:06:58;7.65;;;2.45;;
69991;SDS011;57332;51.320;-0.580;2023-05-01T05:09:25;6.55;;;1.60;;
69991;SDS011;57332;51.320;-0.580;2023-05-01T05:11:52;7.07;;;2.00;;
69991;SDS011;57332;51.320;-0.580;2023-05-01T05:14:19;6.28;;;2.47;;
69991;SDS011;57332;51.320;-0.580;2023-05-01T05:16:46;6.05;;;2.17;;
69991;SDS011;57332;51.320;-0.580;2023-05-01T05:19:13;6.53;;;1.73;;
69991;SDS011;57332;51.320;-0.580;2023-05-01T05:21:39;8.13;;;2.58;;
69991;SDS011;57332;51.320;-0.580;2023-05-01T05:24:06;6.97;;;2.28;;
69991;SDS011;57332;51.320;-0.580;2023-05-01T05:26:33;4.95;;;1.90;;
69991;SDS011;57332;51.320;-0.580;2023-05-01T05:29:00;4.72;;;2.30;;
69991;SDS011;57332;51.320;-0.580;2023-05-01T05:31:27;7.80;;;2.28;;
69991;SDS011;57332;51.320;-0.580;2023-05-01T05:33:54;7.90;;;2.20;;
69991;SDS011;57332;51.320;-0.580;2023-05-01T05:36:21;7.28;;;2.58;;
69991;SDS011;57332;51.320;-0.580;2023-05-01T05:38:48;6.80;;;2.35;;
69991;SDS011;57332;51.320;-0.580;2023-05-01T05:41:15;5.53;;;1.90;;
69991;SDS011;57332;51.320;-0.580;2023-05-01T05:43:43;6.70;;;2.00;;
69991;SDS011;57332;51.320;-0.580;2023-05-01T05:46:09;6.05;;;2.35;;
69991;SDS011;57332;51.320;-0.580;2023-05-01T05:48:37;5.88;;;2.00;;
69991;SDS011;57332;51.320;-0.580;2023-05-01T05:51:03;6.57;;;2.13;;
69991;SDS011;57332;51.320;-0.580;2023-05-01T05:53:31;7.57;;;2.80;;
69991;SDS011;57332;51.320;-0.580;2023-05-01T05:55:58;7.47;;;1.98;;
69991;SDS011;57332;51.320;-0.580;2023-05-01T05:58:25;6.40;;;2.40;;
69991;SDS011;57332;51.320;-0.580;2023-05-01T06:00:52;7.70;;;2.40;;
69991;SDS011;57332;51.320;-0.580;2023-05-01T06:03:21;7.88;;;2.58;;
69991;SDS011;57332;51.320;-0.580;2023-05-01T06:05:48;7.13;;;1.83;;
69991;SDS011;57332;51.320;-0.580;2023-05-01T06:08:15;8.00;;;2.30;;
69991;SDS011;57332;51.320;-0.580;2023-05-01T06:10:42;7.13;;;2.22;;
69991;SDS011;57332;51.320;-0.580;2023-05-01T06:13:10;6.00;;;2.08;;
69991;SDS011;57332;51.320;-0.580;2023-05-01T06:15:40;6.80;;;2.30;;
69991;SDS011;57332;51.320;-0.580;2023-05-01T06:18:07;9.40;;;2.33;;
69991;SDS011;57332;51.320;-0.580;2023-05-01T06:20:34;7.28;;;2.03;;
69991;SDS011;57332;51.320;-0.580;2023-05-01T06:23:02;5.53;;;1.75;;
69991;SDS011;57332;51.320;-0.580;2023-05-01T06:25:29;7.53;;;2.20;;
69991;SDS011;57332;51.320;-0.580;2023-05-01T06:27:56;8.18;;;2.60;;
69991;SDS011;57332;51.320;-0.580;2023-05-01T06:30:23;7.25;;;2.20;;
69991;SDS011;57332;51.320;-0.580;2023-05-01T06:32:50;8.02;;;2.38;;
69991;SDS011;57332;51.320;-0.580;2023-05-01T06:35:17;6.20;;;2.35;;
69991;SDS011;57332;51.320;-0.580;2023-05-01T06:37:44;8.82;;;2.17;;
69991;SDS011;57332;51.320;-0.580;2023-05-01T06:40:10;4.90;;;2.20;;
69991;SDS011;57332;51.320;-0.580;2023-05-01T06:42:38;10.05;;;2.60;;
69991;SDS011;57332;51.320;-0.580;2023-05-01T06:45:05;9.75;;;2.10;;
69991;SDS011;57332;51.320;-0.580;2023-05-01T06:47:33;8.43;;;2.45;;
69991;SDS011;57332;51.320;-0.580;2023-05-01T06:50:00;7.53;;;2.30;;
69991;SDS011;57332;51.320;-0.580;2023-05-01T06:52:30;10.13;;;2.20;;
69991;SDS011;57332;51.320;-0.580;2023-05-01T06:54:57;7.28;;;2.20;;
69991;SDS011;57332;51.320;-0.580;2023-05-01T06:57:23;8.85;;;2.30;;
69991;SDS011;57332;51.320;-0.580;2023-05-01T06:59:50;8.02;;;2.88;;
69991;SDS011;57332;51.320;-0.580;2023-05-01T07:02:17;8.52;;;2.25;;
69991;SDS011;57332;51.320;-0.580;2023-05-01T07:04:44;10.02;;;2.60;;
69991;SDS011;57332;51.320;-0.580;2023-05-01T07:07:11;7.43;;;2.20;;
69991;SDS011;57332;51.320;-0.580;2023-05-01T07:09:38;7.85;;;2.85;;
69991;SDS011;57332;51.320;-0.580;2023-05-01T07:12:05;6.47;;;2.20;;
69991;SDS011;57332;51.320;-0.580;2023-05-01T07:14:35;8.00;;;2.35;;
69991;SDS011;57332;51.320;-0.580;2023-05-01T07:17:02;6.57;;;2.30;;
69991;SDS011;57332;51.320;-0.580;2023-05-01T07:19:29;8.25;;;2.78;;
69991;SDS011;57332;51.320;-0.580;2023-05-01T07:21:56;9.38;;;2.55;;
69991;SDS011;57332;51.320;-0.580;2023-05-01T07:24:23;6.20;;;2.10;;
69991;SDS011;57332;51.320;-0.580;2023-05-01T07:26:50;8.63;;;2.58;;
69991;SDS011;57332;51.320;-0.580;2023-05-01T07:29:17;7.55;;;2.60;;
69991;SDS011;57332;51.320;-0.580;2023-05-01T07:31:44;5.50;;;2.55;;
69991;SDS011;57332;51.320;-0.580;2023-05-01T07:34:11;5.82;;;2.08;;
69991;SDS011;57332;51.320;-0.580;2023-05-01T07:36:39;5.63;;;2.22;;
69991;SDS011;57332;51.320;-0.580;2023-05-01T07:39:07;9.95;;;2.80;;
69991;SDS011;57332;51.320;-0.580;2023-05-01T07:41:33;6.57;;;2.03;;
69991;SDS011;57332;51.320;-0.580;2023-05-01T07:44:01;7.82;;;2.22;;
69991;SDS011;57332;51.320;-0.580;2023-05-01T07:46:28;5.57;;;2.25;;
69991;SDS011;57332;51.320;-0.580;2023-05-01T07:48:55;8.45;;;2.63;;
69991;SDS011;57332;51.320;-0.580;2023-05-01T07:51:22;5.38;;;2.08;;
69991;SDS011;57332;51.320;-0.580;2023-05-01T07:53:49;7.35;;;2.10;;
69991;SDS011;57332;51.320;-0.580;2023-05-01T07:56:16;7.72;;;2.05;;
69991;SDS011;57332;51.320;-0.580;2023-05-01T07:58:43;6.90;;;2.30;;
69991;SDS011;57332;51.320;-0.580;2023-05-01T08:01:10;8.10;;;2.53;;
69991;SDS011;57332;51.320;-0.580;2023-05-01T08:03:37;6.95;;;2.70;;
69991;SDS011;57332;51.320;-0.580;2023-05-01T08:06:04;7.15;;;2.35;;
69991;SDS011;57332;51.320;-0.580;2023-05-01T08:08:31;9.38;;;2.90;;
69991;SDS011;57332;51.320;-0.580;2023-05-01T08:10:58;9.27;;;3.17;;
69991;SDS011;57332;51.320;-0.580;2023-05-01T08:13:25;7.85;;;2.47;;
69991;SDS011;57332;51.320;-0.580;2023-05-01T08:15:52;8.35;;;2.80;;
69991;SDS011;57332;51.320;-0.580;2023-05-01T08:18:19;8.23;;;2.70;;
69991;SDS011;57332;51.320;-0.580;2023-05-01T08:20:47;8.00;;;2.50;;
69991;SDS011;57332;51.320;-0.580;2023-05-01T08:23:14;7.60;;;2.50;;
69991;SDS011;57332;51.320;-0.580;2023-05-01T08:25:44;8.02;;;2.67;;
69991;SDS011;57332;51.320;-0.580;2023-05-01T08:28:16;8.38;;;2.55;;
69991;SDS011;57332;51.320;-0.580;2023-05-01T08:30:44;7.03;;;2.40;;
69991;SDS011;57332;51.320;-0.580;2023-05-01T08:33:11;6.13;;;2.70;;
69991;SDS011;57332;51.320;-0.580;2023-05-01T08:35:38;9.43;;;2.42;;
69991;SDS011;57332;51.320;-0.580;2023-05-01T08:38:05;8.70;;;2.40;;
69991;SDS011;57332;51.320;-0.580;2023-05-01T08:40:33;7.18;;;2.33;;
69991;SDS011;57332;51.320;-0.580;2023-05-01T08:43:01;7.22;;;2.65;;
69991;SDS011;57332;51.320;-0.580;2023-05-01T08:45:31;6.78;;;3.03;;
69991;SDS011;57332;51.320;-0.580;2023-05-01T08:48:03;7.28;;;2.58;;
69991;SDS011;57332;51.320;-0.580;2023-05-01T08:50:32;9.18;;;3.00;;
69991;SDS011;57332;51.320;-0.580;2023-05-01T08:53:00;9.35;;;2.90;;
69991;SDS011;57332;51.320;-0.580;2023-05-01T08:55:27;7.93;;;2.88;;
69991;SDS011;57332;51.320;-0.580;2023-05-01T08:57:56;8.30;;;2.60;;
69991;SDS011;57332;51.320;-0.580;2023-05-01T09:00:24;6.47;;;2.97;;
69991;SDS011;57332;51.320;-0.580;2023-05-01T09:02:51;6.18;;;2.45;;
69991;SDS011;57332;51.320;-0.580;2023-05-01T09:05:18;7.25;;;2.60;;
69991;SDS011;57332;51.320;-0.580;2023-05-01T09:07:45;7.35;;;2.83;;
69991;SDS011;57332;51.320;-0.580;2023-05-01T09:10:14;6.13;;;2.65;;
69991;SDS011;57332;51.320;-0.580;2023-05-01T09:12:41;6.32;;;2.75;;
69991;SDS011;57332;51.320;-0.580;2023-05-01T09:15:11;5.82;;;2.70;;
69991;SDS011;57332;51.320;-0.580;2023-05-01T09:17:38;7.65;;;2.58;;
69991;SDS011;57332;51.320;-0.580;2023-05-01T09:20:05;9.88;;;3.00;;
69991;SDS011;57332;51.320;-0.580;2023-05-01T09:22:33;9.15;;;2.90;;
69991;SDS011;57332;51.320;-0.580;2023-05-01T09:25:00;7.38;;;3.42;;
69991;SDS011;57332;51.320;-0.580;2023-05-01T09:27:28;6.03;;;2.75;;
69991;SDS011;57332;51.320;-0.580;2023-05-01T09:29:55;8.43;;;3.05;;
69991;SDS011;57332;51.320;-0.580;2023-05-01T09:32:23;8.90;;;2.95;;
69991;SDS011;57332;51.320;-0.580;2023-05-01T09:34:51;10.77;;;3.13;;
69991;SDS011;57332;51.320;-0.580;2023-05-01T09:37:28;7.88;;;2.83;;
69991;SDS011;57332;51.320;-0.580;2023-05-01T09:40:08;7.55;;;3.08;;
69991;SDS011;57332;51.320;-0.580;2023-05-01T09:45:10;6.70;;;2.70;;
69991;SDS011;57332;51.320;-0.580;2023-05-01T09:47:42;6.18;;;2.63;;
69991;SDS011;57332;51.320;-0.580;2023-05-01T09:50:43;7.53;;;2.40;;
69991;SDS011;57332;51.320;-0.580;2023-05-01T09:53:03;7.00;;;2.80;;
69991;SDS011;57332;51.320;-0.580;2023-05-01T09:55:31;6.70;;;2.67;;
69991;SDS011;57332;51.320;-0.580;2023-05-01T09:57:58;7.10;;;2.70;;
69991;SDS011;57332;51.320;-0.580;2023-05-01T10:00:25;8.10;;;2.53;;
69991;SDS011;57332;51.320;-0.580;2023-05-01T10:02:52;6.65;;;2.90;;
69991;SDS011;57332;51.320;-0.580;2023-05-01T10:05:19;9.35;;;2.90;;
69991;SDS011;57332;51.320;-0.580;2023-05-01T10:07:56;5.47;;;2.30;;
69991;SDS011;57332;51.320;-0.580;2023-05-01T10:10:23;5.93;;;2.60;;
69991;SDS011;57332;51.320;-0.580;2023-05-01T10:12:51;4.15;;;2.33;;
69991;SDS011;57332;51.320;-0.580;2023-05-01T10:15:17;5.88;;;2.50;;
69991;SDS011;57332;51.320;-0.580;2023-05-01T10:17:51;6.57;;;2.08;;
69991;SDS011;57332;51.320;-0.580;2023-05-01T10:20:19;6.60;;;2.45;;
69991;SDS011;57332;51.320;-0.580;2023-05-01T10:22:46;6.65;;;2.63;;
69991;SDS011;57332;51.320;-0.580;2023-05-01T10:25:15;5.95;;;2.90;;
69991;SDS011;57332;51.320;-0.580;2023-05-01T10:27:43;4.57;;;2.38;;
69991;SDS011;57332;51.320;-0.580;2023-05-01T10:30:10;5.63;;;3.17;;
69991;SDS011;57332;51.320;-0.580;2023-05-01T10:32:38;6.93;;;2.78;;
69991;SDS011;57332;51.320;-0.580;2023-05-01T10:37:38;7.00;;;2.88;;
69991;SDS011;57332;51.320;-0.580;2023-05-01T10:45:36;7.15;;;2.45;;
69991;SDS011;57332;51.320;-0.580;2023-05-01T10:48:03;6.78;;;2.15;;
69991;SDS011;57332;51.320;-0.580;2023-05-01T10:50:30;5.93;;;2.58;;
69991;SDS011;57332;51.320;-0.580;2023-05-01T10:55:46;4.40;;;2.08;;
69991;SDS011;57332;51.320;-0.580;2023-05-01T11:01:29;5.85;;;2.65;;
69991;SDS011;57332;51.320;-0.580;2023-05-01T11:03:58;4.35;;;2.15;;
69991;SDS011;57332;51.320;-0.580;2023-05-01T11:06:25;3.67;;;1.80;;
69991;SDS011;57332;51.320;-0.580;2023-05-01T11:08:53;4.68;;;2.00;;
69991;SDS011;57332;51.320;-0.580;2023-05-01T11:13:59;4.32;;;2.03;;
69991;SDS011;57332;51.320;-0.580;2023-05-01T11:18:59;4.93;;;1.67;;
69991;SDS011;57332;51.320;-0.580;2023-05-01T11:21:29;3.95;;;1.80;;
69991;SDS011;57332;51.320;-0.580;2023-05-01T11:23:59;3.17;;;1.40;;
69991;SDS011;57332;51.320;-0.580;2023-05-01T11:26:27;8.93;;;2.15;;
69991;SDS011;57332;51.320;-0.580;2023-05-01T11:28:57;2.97;;;1.75;;
69991;SDS011;57332;51.320;-0.580;2023-05-01T11:31:25;3.35;;;1.70;;
69991;SDS011;57332;51.320;-0.580;2023-05-01T11:33:54;4.47;;;1.45;;
69991;SDS011;57332;51.320;-0.580;2023-05-01T11:36:21;1.90;;;1.15;;
69991;SDS011;57332;51.320;-0.580;2023-05-01T11:38:49;1.98;;;1.10;;
69991;SDS011;57332;51.320;-0.580;2023-05-01T11:41:20;2.70;;;1.23;;
69991;SDS011;57332;51.320;-0.580;2023-05-01T11:43:50;3.45;;;1.52;;
69991;SDS011;57332;51.320;-0.580;2023-05-01T11:48:50;3.53;;;1.40;;
69991;SDS011;57332;51.320;-0.580;2023-05-01T11:51:17;2.45;;;1.20;;
69991;SDS011;57332;51.320;-0.580;2023-05-01T11:53:56;2.28;;;1.33;;
69991;SDS011;57332;51.320;-0.580;2023-05-01T11:56:24;4.70;;;1.42;;
69991;SDS011;57332;51.320;-0.580;2023-05-01T11:58:54;3.42;;;1.30;;
69991;SDS011;57332;51.320;-0.580;2023-05-01T12:01:21;2.90;;;1.40;;
69991;SDS011;57332;51.320;-0.580;2023-05-01T12:03:47;2.13;;;1.55;;
69991;SDS011;57332;51.320;-0.580;2023-05-01T12:06:15;3.63;;;1.23;;
69991;SDS011;57332;51.320;-0.580;2023-05-01T12:08:51;3.67;;;1.75;;
69991;SDS011;57332;51.320;-0.580;2023-05-01T12:11:18;3.45;;;1.50;;
69991;SDS011;57332;51.320;-0.580;2023-05-01T12:13:46;4.40;;;1.65;;
69991;SDS011;57332;51.320;-0.580;2023-05-01T12:16:15;3.35;;;1.70;;
69991;SDS011;57332;51.320;-0.580;2023-05-01T12:18:43;2.42;;;1.33;;
69991;SDS011;57332;51.320;-0.580;2023-05-01T12:21:16;1.98;;;1.20;;
69991;SDS011;57332;51.320;-0.580;2023-05-01T12:23:45;2.65;;;1.33;;
69991;SDS011;57332;51.320;-0.580;2023-05-01T12:26:16;2.10;;;1.13;;
69991;SDS011;57332;51.320;-0.580;2023-05-01T12:29:03;2.00;;;1.20;;
69991;SDS011;57332;51.320;-0.580;2023-05-01T12:31:30;1.83;;;0.93;;
69991;SDS011;57332;51.320;-0.580;2023-05-01T12:34:01;1.25;;;0.90;;
69991;SDS011;57332;51.320;-0.580;2023-05-01T12:36:28;1.48;;;1.10;;
69991;SDS011;57332;51.320;-0.580;2023-05-01T12:38:58;2.03;;;0.90;;
69991;SDS011;57332;51.320;-0.580;2023-05-01T12:41:36;1.33;;;0.95;;
69991;SDS011;57332;51.320;-0.580;2023-05-01T12:46:30;2.03;;;1.10;;
69991;SDS011;57332;51.320;-0.580;2023-05-01T12:48:57;2.00;;;1.00;;
69991;SDS011;57332;51.320;-0.580;2023-05-01T12:51:24;7.70;;;1.63;;
69991;SDS011;57332;51.320;-0.580;2023-05-01T12:53:53;3.35;;;1.17;;
69991;SDS011;57332;51.320;-0.580;2023-05-01T12:56:23;1.98;;;1.00;;
69991;SDS011;57332;51.320;-0.580;2023-05-01T12:58:51;4.60;;;1.10;;
69991;SDS011;57332;51.320;-0.580;2023-05-01T13:01:25;3.95;;;1.30;;
69991;SDS011;57332;51.320;-0.580;2023-05-01T13:03:53;1.38;;;0.70;;
69991;SDS011;57332;51.320;-0.580;2023-05-01T13:06:29;2.10;;;0.88;;
69991;SDS011;57332;51.320;-0.580;2023-05-01T13:09:05;1.20;;;0.90;;
69991;SDS011;57332;51.320;-0.580;2023-05-01T13:11:33;1.17;;;0.65;;
69991;SDS011;57332;51.320;-0.580;2023-05-01T13:14:05;2.20;;;0.90;;
69991;SDS011;57332;51.320;-0.580;2023-05-01T13:16:33;2.33;;;1.00;;
69991;SDS011;57332;51.320;-0.580;2023-05-01T13:19:00;2.20;;;1.20;;
69991;SDS011;57332;51.320;-0.580;2023-05-01T13:21:27;1.55;;;0.88;;
69991;SDS011;57332;51.320;-0.580;2023-05-01T13:23:57;1.70;;;0.93;;
69991;SDS011;57332;51.320;-0.580;2023-05-01T13:26:25;3.63;;;1.10;;
69991;SDS011;57332;51.320;-0.580;2023-05-01T13:28:53;1.58;;;0.93;;
69991;SDS011;57332;51.320;-0.580;2023-05-01T13:31:21;2.63;;;1.15;;
69991;SDS011;57332;51.320;-0.580;2023-05-01T13:33:51;1.90;;;0.98;;
69991;SDS011;57332;51.320;-0.580;2023-05-01T13:36:19;1.35;;;0.93;;
69991;SDS011;57332;51.320;-0.580;2023-05-01T13:38:53;2.00;;;1.00;;
69991;SDS011;57332;51.320;-0.580;2023-05-01T13:41:22;1.58;;;0.80;;
69991;SDS011;57332;51.320;-0.580;2023-05-01T13:43:51;1.63;;;1.10;;
69991;SDS011;57332;51.320;-0.580;2023-05-01T13:46:18;2.10;;;1.00;;
69991;SDS011;57332;51.320;-0.580;2023-05-01T13:48:46;2.25;;;1.20;;
69991;SDS011;57332;51.320;-0.580;2023-05-01T13:51:13;1.80;;;1.20;;
69991;SDS011;57332;51.320;-0.580;2023-05-01T13:53:41;1.75;;;0.85;;
69991;SDS011;57332;51.320;-0.580;2023-05-01T13:56:08;2.20;;;1.15;;
69991;SDS011;57332;51.320;-0.580;2023-05-01T13:58:35;3.40;;;1.30;;
69991;SDS011;57332;51.320;-0.580;2023-05-01T14:01:02;2.10;;;1.40;;
69991;SDS011;57332;51.320;-0.580;2023-05-01T14:03:37;3.80;;;1.40;;
69991;SDS011;57332;51.320;-0.580;2023-05-01T14:06:09;2.17;;;1.30;;
69991;SDS011;57332;51.320;-0.580;2023-05-01T14:08:37;2.05;;;1.45;;
69991;SDS011;57332;51.320;-0.580;2023-05-01T14:11:05;2.70;;;1.50;;
69991;SDS011;57332;51.320;-0.580;2023-05-01T14:13:33;3.08;;;1.20;;
69991;SDS011;57332;51.320;-0.580;2023-05-01T14:16:01;4.07;;;1.38;;
69991;SDS011;57332;51.320;-0.580;2023-05-01T14:18:30;2.88;;;1.67;;
69991;SDS011;57332;51.320;-0.580;2023-05-01T14:20:58;2.42;;;1.48;;
69991;SDS011;57332;51.320;-0.580;2023-05-01T14:23:25;2.30;;;1.15;;
69991;SDS011;57332;51.320;-0.580;2023-05-01T14:25:53;2.53;;;1.42;;
69991;SDS011;57332;51.320;-0.580;2023-05-01T14:28:20;2.75;;;1.40;;
69991;SDS011;57332;51.320;-0.580;2023-05-01T14:30:46;3.90;;;1.45;;
69991;SDS011;57332;51.320;-0.580;2023-05-01T14:33:15;2.25;;;1.23;;
69991;SDS011;57332;51.320;-0.580;2023-05-01T14:35:49;1.23;;;0.90;;
69991;SDS011;57332;51.320;-0.580;2023-05-01T14:38:17;1.63;;;0.90;;
69991;SDS011;57332;51.320;-0.580;2023-05-01T14:40:44;1.85;;;1.17;;
69991;SDS011;57332;51.320;-0.580;2023-05-01T14:43:18;1.75;;;1.30;;
69991;SDS011;57332;51.320;-0.580;2023-05-01T14:45:45;2.03;;;1.30;;
69991;SDS011;57332;51.320;-0.580;2023-05-01T14:48:16;2.42;;;1.10;;
69991;SDS011;57332;51.320;-0.580;2023-05-01T14:50:46;2.10;;;1.00;;
69991;SDS011;57332;51.320;-0.580;2023-05-01T14:53:21;1.20;;;0.60;;
69991;SDS011;57332;51.320;-0.580;2023-05-01T14:55:51;0.95;;;0.80;;
69991;SDS011;57332;51.320;-0.580;2023-05-01T14:58:19;1.15;;;1.05;;
69991;SDS011;57332;51.320;-0.580;2023-05-01T15:00:46;1.85;;;0.90;;
69991;SDS011;57332;51.320;-0.580;2023-05-01T15:03:13;1.88;;;1.00;;
69991;SDS011;57332;51.320;-0.580;2023-05-01T15:05:40;2.28;;;1.00;;
69991;SDS011;57332;51.320;-0.580;2023-05-01T15:08:07;1.98;;;1.10;;
69991;SDS011;57332;51.320;-0.580;2023-05-01T15:10:34;1.35;;;1.10;;
69991;SDS011;57332;51.320;-0.580;2023-05-01T15:13:01;2.13;;;1.00;;
69991;SDS011;57332;51.320;-0.580;2023-05-01T15:15:28;2.00;;;1.40;;
69991;SDS011;57332;51.320;-0.580;2023-05-01T15:17:55;2.05;;;1.30;;